Time;durP1;ratioP1;P1;durP2;ratioP2;P2;SDS_P1;SDS_P2;PMS_P1;PMS_P2;Temp;Humidity;BMP_temperature;BMP_pressure;BME280_temperature;BME280_humidity;BME280_pressure;Samples;Min_cycle;Max_cycle;Signal;HPM_P1;HPM_P2
2021/07/15 00:01:08;;;;;;;16.35;14.18;;;20.20;99.90;;;;;;5091306;28;20370;-75
2021/07/15 00:03:34;;;;;;;15.40;13.80;;;20.20;99.90;;;;;;5093854;28;20063;-75
2021/07/15 00:06:00;;;;;;;13.63;12.20;;;20.20;99.90;;;;;;5095664;28;20063;-75
2021/07/15 00:08:27;;;;;;;14.18;12.75;;;20.20;99.90;;;;;;5096795;28;20054;-75
2021/07/15 00:11:04;;;;;;;14.45;12.98;;;20.20;99.90;;;;;;5083038;28;20065;-75
2021/07/15 00:13:31;;;;;;;18.85;14.48;;;20.20;99.90;;;;;;5087860;28;20119;-75
2021/07/15 00:15:58;;;;;;;16.02;12.98;;;20.20;99.90;;;;;;5082303;28;20091;-75
2021/07/15 00:18:33;;;;;;;12.07;10.77;;;20.20;99.90;;;;;;5076246;28;20032;-75
2021/07/15 00:21:01;;;;;;;13.93;12.40;;;20.20;99.90;;;;;;5076281;28;20021;-74
2021/07/15 00:23:27;;;;;;;12.82;10.93;;;20.20;99.90;;;;;;5076192;28;20086;-74
2021/07/15 00:25:52;;;;;;;12.73;11.32;;;20.20;99.90;;;;;;5075850;28;20149;-74
2021/07/15 00:28:19;;;;;;;14.45;12.98;;;20.20;99.90;;;;;;5086450;28;20028;-74
2021/07/15 00:30:45;;;;;;;12.32;10.98;;;20.20;99.90;;;;;;5096224;28;20385;-74
2021/07/15 00:33:10;;;;;;;12.13;10.93;;;20.20;99.90;;;;;;5096214;28;20241;-74
2021/07/15 00:35:37;;;;;;;13.70;11.50;;;20.20;99.90;;;;;;5096187;28;20477;-73
2021/07/15 00:38:04;;;;;;;13.05;11.80;;;20.20;99.90;;;;;;5096041;28;20097;-73
2021/07/15 00:40:30;;;;;;;14.95;13.27;;;20.10;99.90;;;;;;5094673;28;20066;-73
2021/07/15 00:42:56;;;;;;;13.30;11.73;;;20.10;99.90;;;;;;5095967;28;20038;-73
2021/07/15 00:45:22;;;;;;;15.13;13.18;;;20.10;99.90;;;;;;5085640;28;20104;-73
2021/07/15 00:47:48;;;;;;;15.48;13.50;;;20.10;99.90;;;;;;5074381;28;20028;-73
2021/07/15 00:50:17;;;;;;;13.18;11.82;;;20.10;99.90;;;;;;5074440;28;20029;-73
2021/07/15 00:52:43;;;;;;;14.63;13.13;;;20.10;99.90;;;;;;5088379;28;20416;-73
2021/07/15 00:55:14;;;;;;;18.63;16.40;;;20.10;99.90;;;;;;5094321;28;20020;-73
2021/07/15 00:57:40;;;;;;;15.57;13.88;;;20.10;99.90;;;;;;5095867;28;20032;-73
2021/07/15 01:00:08;;;;;;;15.93;12.07;;;20.00;99.90;;;;;;5095737;28;20032;-73
2021/07/15 01:02:34;;;;;;;16.42;13.27;;;20.00;99.90;;;;;;5095747;28;20020;-73
2021/07/15 01:05:01;;;;;;;17.35;14.27;;;20.00;99.90;;;;;;5095586;28;20024;-73
2021/07/15 01:07:26;;;;;;;17.02;14.93;;;20.00;99.90;;;;;;5094085;28;20478;-73
2021/07/15 01:09:52;;;;;;;15.15;13.55;;;20.00;99.90;;;;;;5095653;28;20036;-73
2021/07/15 01:12:51;;;;;;;20.27;17.55;;;20.10;99.90;;;;;;5095417;28;20099;-73
2021/07/15 01:15:22;;;;;;;16.33;14.55;;;20.00;99.90;;;;;;5094252;28;20047;-73
2021/07/15 01:18:13;;;;;;;17.88;16.08;;;19.90;99.90;;;;;;5095320;28;20028;-73
2021/07/15 01:21:16;;;;;;;15.55;13.95;;;19.90;99.90;;;;;;5095334;28;20016;-73
2021/07/15 01:24:32;;;;;;;18.17;15.60;;;19.90;99.90;;;;;;5094037;28;20032;-73
2021/07/15 01:27:27;;;;;;;22.83;17.52;;;19.90;99.90;;;;;;5094936;28;20085;-73
2021/07/15 01:29:59;;;;;;;22.73;17.35;;;19.80;99.90;;;;;;5095142;28;20051;-73
2021/07/15 01:32:32;;;;;;;18.30;15.80;;;19.80;99.90;;;;;;5094985;28;20024;-73
2021/07/15 01:35:03;;;;;;;19.50;17.10;;;19.80;99.90;;;;;;5093863;28;20035;-72
2021/07/15 01:37:31;;;;;;;20.20;17.08;;;19.80;99.90;;;;;;5093407;28;20241;-72
2021/07/15 01:39:57;;;;;;;18.50;15.52;;;19.80;99.90;;;;;;5095010;28;20193;-73
2021/07/15 01:42:25;;;;;;;13.70;12.32;;;19.80;99.90;;;;;;5094833;28;20492;-73
2021/07/15 01:44:52;;;;;;;18.50;15.50;;;19.80;99.90;;;;;;5093506;28;20032;-73
2021/07/15 01:47:18;;;;;;;14.68;13.07;;;19.80;99.90;;;;;;5094740;28;20028;-73
2021/07/15 01:49:44;;;;;;;14.40;12.50;;;19.70;99.90;;;;;;5093609;28;20027;-73
2021/07/15 01:52:10;;;;;;;14.07;12.35;;;19.70;99.90;;;;;;5085017;28;20038;-73
2021/07/15 01:54:36;;;;;;;16.65;14.85;;;19.80;99.90;;;;;;5073213;28;20028;-73
2021/07/15 01:57:05;;;;;;;16.85;14.52;;;19.70;99.90;;;;;;5074116;28;20095;-73
2021/07/15 01:59:32;;;;;;;19.30;16.33;;;19.70;99.90;;;;;;5073055;28;20048;-73
2021/07/15 02:01:59;;;;;;;17.42;15.57;;;19.70;99.90;;;;;;5073015;28;20025;-72
2021/07/15 02:04:29;;;;;;;15.80;13.77;;;19.60;99.90;;;;;;5073092;28;20111;-73
2021/07/15 02:06:55;;;;;;;;;;;19.60;99.90;;;;;;5074492;28;20024;-72
2021/07/15 02:09:21;;;;;;;16.65;12.75;;;19.50;99.90;;;;;;5073140;28;19904;-72
2021/07/15 02:11:49;;;;;;;15.05;12.77;;;19.50;99.90;;;;;;5073937;28;20028;-73
2021/07/15 02:14:16;;;;;;;16.60;14.27;;;19.60;99.90;;;;;;5073938;28;20039;-72
2021/07/15 02:16:50;;;;;;;14.77;12.80;;;19.60;99.90;;;;;;5074076;28;20024;-72
2021/07/15 02:19:17;;;;;;;14.80;12.98;;;19.60;99.90;;;;;;5082285;28;20021;-74
2021/07/15 02:21:44;;;;;;;17.05;13.75;;;19.60;99.90;;;;;;5094168;28;20024;-72
2021/07/15 02:24:11;;;;;;;16.98;14.13;;;19.60;99.90;;;;;;5094134;28;20477;-73
2021/07/15 02:26:39;;;;;;;14.35;12.70;;;19.60;99.90;;;;;;5092166;28;20051;-72
2021/07/15 02:29:05;;;;;;;16.08;13.43;;;19.60;99.90;;;;;;5093885;28;20038;-72
2021/07/15 02:31:54;;;;;;;13.93;12.48;;;19.60;99.90;;;;;;5093998;28;20032;-72
2021/07/15 02:34:28;;;;;;;19.92;15.55;;;19.60;99.90;;;;;;5092709;28;20035;-72
2021/07/15 02:36:58;;;;;;;20.30;16.13;;;19.60;99.90;;;;;;5092270;28;20040;-73
2021/07/15 02:39:24;;;;;;;;;;;19.50;99.90;;;;;;5093042;28;20066;-73
2021/07/15 02:41:49;;;;;;;21.77;16.88;;;19.50;99.90;;;;;;5093746;28;20389;-73
2021/07/15 02:44:15;;;;;;;19.08;15.10;;;19.40;99.90;;;;;;5093590;28;20016;-72
2021/07/15 02:46:40;;;;;;;16.10;13.27;;;19.50;99.90;;;;;;5092371;28;20038;-73
2021/07/15 02:49:06;;;;;;;24.17;19.40;;;19.50;99.90;;;;;;5093649;28;20031;-73
2021/07/15 02:51:32;;;;;;;20.25;16.55;;;19.50;99.90;;;;;;5090286;28;20017;-73
2021/07/15 02:54:00;;;;;;;23.98;16.73;;;19.50;99.90;;;;;;5071916;28;20524;-73
2021/07/15 02:56:36;;;;;;;20.58;17.05;;;19.50;99.90;;;;;;5073193;28;20060;-72
2021/07/15 02:59:13;;;;;;;20.77;18.10;;;19.50;99.90;;;;;;5073117;28;20012;-73
2021/07/15 03:01:51;;;;;;;21.17;17.80;;;19.50;99.90;;;;;;5071896;28;20031;-73
2021/07/15 03:04:35;;;;;;;25.98;18.90;;;19.50;99.90;;;;;;5071888;28;20033;-73
2021/07/15 03:07:03;;;;;;;20.63;15.98;;;19.50;99.90;;;;;;5073001;28;20048;-72
2021/07/15 03:09:30;;;;;;;23.85;18.73;;;19.50;99.90;;;;;;5073136;28;20025;-72
2021/07/15 03:12:13;;;;;;;20.77;16.00;;;19.50;99.90;;;;;;5072931;28;20028;-73
2021/07/15 03:14:42;;;;;;;20.13;15.93;;;19.50;99.90;;;;;;5071458;28;20123;-73
2021/07/15 03:17:11;;;;;;;17.90;14.90;;;19.50;99.90;;;;;;5072780;28;20028;-72
2021/07/15 03:19:40;;;;;;;21.15;16.65;;;19.50;99.90;;;;;;5084118;28;20020;-73
2021/07/15 03:22:07;;;;;;;18.75;16.00;;;19.40;99.90;;;;;;5091734;28;20024;-73
2021/07/15 03:24:38;;;;;;;17.15;14.07;;;19.40;99.90;;;;;;5091847;28;20039;-72
2021/07/15 03:27:05;;;;;;;14.88;13.27;;;19.50;99.90;;;;;;5092824;28;20358;-72
2021/07/15 03:29:32;;;;;;;18.17;13.38;;;19.50;99.90;;;;;;5091579;28;20035;-72
2021/07/15 03:31:59;;;;;;;13.75;12.25;;;19.50;99.90;;;;;;5092950;28;20038;-73
2021/07/15 03:34:28;;;;;;;13.68;11.73;;;19.50;99.90;;;;;;5091713;28;20024;-72
2021/07/15 03:36:54;;;;;;;12.20;10.40;;;19.40;99.90;;;;;;5092313;28;20049;-72
2021/07/15 03:39:20;;;;;;;12.75;10.95;;;19.40;99.90;;;;;;5091252;28;20039;-73
2021/07/15 03:41:47;;;;;;;12.93;10.40;;;19.50;99.90;;;;;;5092479;28;20362;-73
2021/07/15 03:44:15;;;;;;;10.73;9.52;;;19.50;99.90;;;;;;5091303;28;20431;-73
2021/07/15 03:46:42;;;;;;;12.02;10.18;;;19.50;99.90;;;;;;5092751;28;20028;-72
2021/07/15 03:49:08;;;;;;;12.63;10.95;;;19.50;99.90;;;;;;5091460;28;20032;-73
2021/07/15 03:51:35;;;;;;;10.48;9.07;;;19.40;99.90;;;;;;5089166;28;20035;-73
2021/07/15 03:54:01;;;;;;;11.25;9.73;;;19.40;99.90;;;;;;5072325;28;20030;-73
2021/07/15 03:56:29;;;;;;;12.00;9.43;;;19.40;99.90;;;;;;5072368;28;20021;-72
2021/07/15 03:59:00;;;;;;;8.68;7.78;;;19.40;99.90;;;;;;5072227;28;20449;-73
2021/07/15 04:01:29;;;;;;;10.10;8.35;;;19.40;99.90;;;;;;5081637;28;20028;-72
2021/07/15 04:03:56;;;;;;;7.72;7.00;;;19.40;99.90;;;;;;5091045;28;20027;-73
2021/07/15 04:06:23;;;;;;;9.25;7.80;;;19.40;99.90;;;;;;5090234;28;20032;-72
2021/07/15 04:08:50;;;;;;;9.40;7.63;;;19.40;99.90;;;;;;5091949;28;20064;-72
2021/07/15 04:11:19;;;;;;;10.48;8.32;;;19.40;99.90;;;;;;5092498;28;20039;-73
2021/07/15 04:13:46;;;;;;;10.17;8.93;;;19.40;99.90;;;;;;5092310;28;20024;-72
2021/07/15 04:16:30;;;;;;;8.93;8.02;;;19.30;99.90;;;;;;5092441;28;20030;-73
2021/07/15 04:18:59;;;;;;;7.65;6.78;;;19.30;99.90;;;;;;5085471;28;20021;-73
2021/07/15 04:21:25;;;;;;;7.78;6.97;;;19.40;99.90;;;;;;5071101;28;20020;-73
2021/07/15 04:23:54;;;;;;;6.88;6.03;;;19.30;99.90;;;;;;5070906;28;20374;-72
2021/07/15 04:26:19;;;;;;;6.25;5.65;;;19.30;99.90;;;;;;5072203;28;20021;-73
2021/07/15 04:28:47;;;;;;;8.15;6.63;;;19.40;99.90;;;;;;5070867;28;20436;-73
2021/07/15 04:31:34;;;;;;;6.80;5.53;;;19.40;99.90;;;;;;5070704;28;20024;-73
2021/07/15 04:34:01;;;;;;;5.85;5.22;;;19.40;99.90;;;;;;5070696;28;20036;-72
2021/07/15 04:36:30;;;;;;;6.03;5.43;;;19.40;99.90;;;;;;5072096;28;20108;-73
2021/07/15 04:38:56;;;;;;;6.53;5.50;;;19.40;99.90;;;;;;5071908;28;20541;-73
2021/07/15 04:41:24;;;;;;;6.80;6.10;;;19.40;99.90;;;;;;5070725;28;20159;-73
2021/07/15 04:43:51;;;;;;;6.78;5.40;;;19.40;99.90;;;;;;5072047;28;20024;-73
2021/07/15 04:46:20;;;;;;;6.03;5.30;;;19.40;99.90;;;;;;5071721;28;20036;-73
2021/07/15 04:48:47;;;;;;;5.22;4.72;;;19.40;99.90;;;;;;5072560;28;20162;-73
2021/07/15 04:51:16;;;;;;;6.13;5.20;;;19.40;99.90;;;;;;5074718;28;20056;-73
2021/07/15 04:53:42;;;;;;;6.67;5.50;;;19.40;99.90;;;;;;5094649;28;20020;-73
2021/07/15 04:56:08;;;;;;;8.65;5.97;;;19.40;99.90;;;;;;5095805;28;20027;-73
2021/07/15 04:58:33;;;;;;;7.60;6.03;;;19.40;99.90;;;;;;5094334;28;20020;-73
2021/07/15 05:00:59;;;;;;;5.85;5.25;;;19.30;99.90;;;;;;5095527;28;20032;-73
2021/07/15 05:03:30;;;;;;;6.80;5.80;;;19.30;99.90;;;;;;5095692;28;20118;-73
2021/07/15 05:05:57;;;;;;;5.72;5.13;;;19.30;99.90;;;;;;5094483;28;20114;-73
2021/07/15 05:08:22;;;;;;;8.30;7.10;;;19.30;99.90;;;;;;5095552;28;20366;-73
2021/07/15 05:10:48;;;;;;;8.80;6.75;;;19.30;99.90;;;;;;5095681;28;20039;-73
2021/07/15 05:13:13;;;;;;;7.47;6.63;;;19.30;99.90;;;;;;5095319;28;20028;-73
2021/07/15 05:15:39;;;;;;;8.25;7.10;;;19.30;99.90;;;;;;5095281;28;20024;-73
2021/07/15 05:18:05;;;;;;;8.88;7.15;;;19.30;99.90;;;;;;5094252;28;20024;-73
2021/07/15 05:20:30;;;;;;;7.22;6.43;;;19.30;99.90;;;;;;5094890;28;20066;-73
2021/07/15 05:22:56;;;;;;;8.05;6.45;;;19.30;99.90;;;;;;5094875;28;20028;-73
2021/07/15 05:25:22;;;;;;;8.77;6.95;;;19.40;99.90;;;;;;5093768;28;20020;-73
2021/07/15 05:27:47;;;;;;;7.75;6.57;;;19.30;99.90;;;;;;5095131;28;20102;-73
2021/07/15 05:30:13;;;;;;;7.03;6.32;;;19.30;99.90;;;;;;5095250;28;20032;-73
2021/07/15 05:32:39;;;;;;;7.85;6.15;;;19.40;99.90;;;;;;5094905;28;20030;-73
2021/07/15 05:35:05;;;;;;;10.10;7.93;;;19.40;99.90;;;;;;5095126;28;20024;-73
2021/07/15 05:37:30;;;;;;;7.88;6.65;;;19.40;99.90;;;;;;5094932;28;20044;-73
2021/07/15 05:39:56;;;;;;;9.82;8.13;;;19.40;99.90;;;;;;5094918;28;20082;-73
2021/07/15 05:42:22;;;;;;;12.73;9.05;;;19.30;99.90;;;;;;5094806;28;20032;-73
2021/07/15 05:44:48;;;;;;;11.10;8.80;;;19.30;99.90;;;;;;5094733;28;20032;-73
2021/07/15 05:47:13;;;;;;;9.93;8.02;;;19.30;99.90;;;;;;5093453;28;20066;-73
2021/07/15 05:49:39;;;;;;;9.70;8.40;;;19.30;99.90;;;;;;5094826;28;20028;-73
2021/07/15 05:52:06;;;;;;;15.52;12.23;;;19.30;99.90;;;;;;5078616;28;20033;-73
2021/07/15 05:54:32;;;;;;;15.90;10.93;;;19.30;99.90;;;;;;5074335;28;20069;-73
2021/07/15 05:56:58;;;;;;;13.95;11.75;;;19.20;99.90;;;;;;5073985;28;20036;-74
2021/07/15 05:59:23;;;;;;;18.25;13.18;;;19.20;99.90;;;;;;5076495;28;20023;-73
2021/07/15 06:01:49;;;;;;;19.42;13.95;;;19.20;99.90;;;;;;5072707;28;20024;-73
2021/07/15 06:04:15;;;;;;;17.75;14.10;;;19.20;99.90;;;;;;5073873;28;20039;-73
2021/07/15 06:06:41;;;;;;;16.73;12.30;;;19.20;99.90;;;;;;5073640;28;20057;-73
2021/07/15 06:09:06;;;;;;;15.95;11.88;;;19.20;99.90;;;;;;5073898;28;20103;-73
2021/07/15 06:11:32;;;;;;;17.55;12.13;;;19.20;99.90;;;;;;5074100;28;20044;-73
2021/07/15 06:13:57;;;;;;;16.77;13.35;;;19.20;99.90;;;;;;5074055;28;20029;-73
2021/07/15 06:16:23;;;;;;;19.20;14.73;;;19.20;99.90;;;;;;5074222;28;20492;-73
2021/07/15 06:18:48;;;;;;;21.92;15.48;;;19.10;99.90;;;;;;5077008;28;20027;-73
2021/07/15 06:21:14;;;;;;;21.55;15.00;;;19.10;99.90;;;;;;5094190;28;20046;-73
2021/07/15 06:23:39;;;;;;;21.02;15.32;;;19.10;99.90;;;;;;5094241;28;20028;-73
2021/07/15 06:26:05;;;;;;;21.45;14.80;;;19.10;99.90;;;;;;5094077;28;20028;-73
2021/07/15 06:28:32;;;;;;;20.00;14.80;;;19.10;99.90;;;;;;5092761;28;20493;-73
2021/07/15 06:30:58;;;;;;;20.40;15.75;;;19.10;99.90;;;;;;5092718;28;20036;-73
2021/07/15 06:33:23;;;;;;;19.30;13.57;;;19.10;99.90;;;;;;5093801;28;20028;-73
2021/07/15 06:35:51;;;;;;;19.13;14.32;;;19.10;99.90;;;;;;5092610;28;20034;-73
2021/07/15 06:38:18;;;;;;;18.33;15.02;;;19.10;99.90;;;;;;5093790;28;20074;-73
2021/07/15 06:40:49;;;;;;;18.83;15.15;;;19.10;99.90;;;;;;5092396;28;20043;-73
2021/07/15 06:43:15;;;;;;;18.73;14.18;;;19.10;99.90;;;;;;5092538;28;20470;-73
2021/07/15 06:45:40;;;;;;;21.58;15.00;;;19.20;99.90;;;;;;5093768;28;20039;-73
2021/07/15 06:48:06;;;;;;;21.27;16.73;;;19.10;99.90;;;;;;5093541;28;20032;-73
2021/07/15 06:50:31;;;;;;;18.55;14.52;;;19.20;99.90;;;;;;5093710;28;20024;-73
2021/07/15 06:52:57;;;;;;;17.92;13.95;;;19.20;99.90;;;;;;5078417;28;20032;-73
2021/07/15 06:55:22;;;;;;;22.10;14.52;;;19.20;99.90;;;;;;5073226;28;20020;-73
2021/07/15 06:57:48;;;;;;;15.23;12.25;;;19.20;99.90;;;;;;5072908;28;20493;-72
2021/07/15 07:00:16;;;;;;;12.85;10.90;;;19.20;99.90;;;;;;5071301;28;20017;-73
2021/07/15 07:02:44;;;;;;;15.60;11.95;;;19.30;99.90;;;;;;5072521;28;20031;-73
2021/07/15 07:05:10;;;;;;;13.07;11.18;;;19.30;99.90;;;;;;5098849;28;20020;-72
2021/07/15 07:07:37;;;;;;;13.30;9.68;;;19.30;99.90;;;;;;5071245;28;20056;-71
2021/07/15 07:10:04;;;;;;;11.68;8.88;;;19.30;99.90;;;;;;5070716;28;20024;-73
2021/07/15 07:12:30;;;;;;;11.38;9.80;;;19.30;99.90;;;;;;5072430;28;20017;-74
2021/07/15 07:14:56;;;;;;;10.88;8.38;;;19.30;99.90;;;;;;5078910;28;20031;-74
2021/07/15 07:17:22;;;;;;;9.45;8.45;;;19.30;99.90;;;;;;5086852;28;20404;-73
2021/07/15 07:19:47;;;;;;;11.60;9.13;;;19.30;99.90;;;;;;5086898;28;20016;-72
2021/07/15 07:22:13;;;;;;;10.48;7.93;;;19.20;99.90;;;;;;5076237;28;20442;-74
2021/07/15 07:24:39;;;;;;;9.48;8.43;;;19.20;99.90;;;;;;5071360;28;20481;-74
2021/07/15 07:27:04;;;;;;;9.10;8.15;;;19.20;99.90;;;;;;5071070;28;20120;-74
2021/07/15 07:29:30;;;;;;;10.68;7.80;;;19.20;99.90;;;;;;5071935;28;20027;-74
2021/07/15 07:31:55;;;;;;;12.55;8.23;;;19.20;99.90;;;;;;5074572;28;20027;-74
2021/07/15 07:34:21;;;;;;;10.80;7.80;;;19.30;99.90;;;;;;5072751;28;20131;-74
2021/07/15 07:36:46;;;;;;;8.07;7.22;;;19.30;99.90;;;;;;5070326;28;20031;-74
2021/07/15 07:39:12;;;;;;;10.38;7.93;;;19.30;99.90;;;;;;5073479;28;20016;-73
2021/07/15 07:41:37;;;;;;;7.57;6.78;;;19.40;99.90;;;;;;5084099;28;20028;-73
2021/07/15 07:44:03;;;;;;;9.60;7.78;;;19.40;99.90;;;;;;5087990;28;20036;-73
2021/07/15 07:46:29;;;;;;;10.15;7.90;;;19.40;99.90;;;;;;5074700;28;20485;-74
2021/07/15 07:48:54;;;;;;;11.65;8.38;;;19.40;99.90;;;;;;5071486;28;20021;-73
2021/07/15 07:51:20;;;;;;;9.13;7.13;;;19.40;99.90;;;;;;5074952;28;20062;-74
2021/07/15 07:53:45;;;;;;;10.00;7.45;;;19.40;99.90;;;;;;5071418;28;20492;-73
2021/07/15 07:56:12;;;;;;;8.20;7.28;;;19.40;99.90;;;;;;5071597;28;20024;-73
2021/07/15 07:58:38;;;;;;;7.90;6.90;;;19.50;99.90;;;;;;5074514;28;20027;-74
2021/07/15 08:01:03;;;;;;;10.02;6.90;;;19.50;99.90;;;;;;5070120;28;20021;-74
2021/07/15 08:03:29;;;;;;;7.65;6.28;;;19.50;99.90;;;;;;5071762;28;20094;-76
2021/07/15 08:05:55;;;;;;;10.57;8.32;;;19.50;99.90;;;;;;5071559;28;20024;-76
2021/07/15 08:08:22;;;;;;;10.20;8.70;;;19.40;99.90;;;;;;5071211;28;20028;-74
2021/07/15 08:10:48;;;;;;;13.15;9.38;;;19.40;99.90;;;;;;5087016;28;20478;-75
2021/07/15 08:13:14;;;;;;;13.23;10.02;;;19.30;99.90;;;;;;5091018;28;20028;-74
2021/07/15 08:15:39;;;;;;;19.42;11.02;;;19.30;99.90;;;;;;5092379;28;20039;-74
2021/07/15 08:18:05;;;;;;;15.93;9.95;;;19.30;99.90;;;;;;5092272;28;20039;-74
2021/07/15 08:20:30;;;;;;;9.45;8.13;;;19.20;99.90;;;;;;5073234;28;20096;-74
2021/07/15 08:22:56;;;;;;;12.70;8.07;;;19.30;99.90;;;;;;5087117;28;20465;-75
2021/07/15 08:25:23;;;;;;;12.32;8.30;;;19.30;99.90;;;;;;5089562;28;20020;-75
2021/07/15 08:27:49;;;;;;;11.27;8.13;;;19.40;99.90;;;;;;5095502;28;20016;-75
2021/07/15 08:30:16;;;;;;;10.80;6.85;;;19.50;99.90;;;;;;5095918;28;20035;-75
2021/07/15 08:32:42;;;;;;;9.57;7.40;;;19.60;99.90;;;;;;5094861;28;20020;-75
2021/07/15 08:35:08;;;;;;;9.98;7.45;;;19.70;99.90;;;;;;5094611;28;20027;-75
2021/07/15 08:37:34;;;;;;;9.13;6.82;;;19.60;99.90;;;;;;5095657;28;20036;-74
2021/07/15 08:40:01;;;;;;;9.13;6.93;;;19.60;99.90;;;;;;5096066;28;20020;-74
2021/07/15 08:42:27;;;;;;;8.57;6.35;;;19.60;99.90;;;;;;5094783;28;20020;-74
2021/07/15 08:44:54;;;;;;;9.32;6.40;;;19.50;99.90;;;;;;5096046;28;20043;-74
2021/07/15 08:47:19;;;;;;;8.13;7.28;;;19.50;99.90;;;;;;5095922;28;20477;-73
2021/07/15 08:49:45;;;;;;;12.13;8.25;;;19.50;99.90;;;;;;5095787;28;20028;-73
2021/07/15 08:52:15;;;;;;;11.38;8.73;;;19.50;99.90;;;;;;5095503;28;20030;-73
2021/07/15 08:55:02;;;;;;;15.13;10.38;;;19.50;99.90;;;;;;5095226;28;20028;-74
2021/07/15 08:57:27;;;;;;;18.48;9.10;;;19.40;99.90;;;;;;5083658;28;20024;-74
2021/07/15 08:59:53;;;;;;;15.30;9.52;;;19.40;99.90;;;;;;5072789;28;20025;-74
2021/07/15 09:02:20;;;;;;;15.45;8.93;;;19.40;99.90;;;;;;5074701;28;20024;-74
2021/07/15 09:04:47;;;;;;;13.30;8.80;;;19.40;99.90;;;;;;5074505;28;20036;-74
2021/07/15 09:07:13;;;;;;;10.43;7.32;;;19.40;99.90;;;;;;5079485;28;20035;-74
2021/07/15 09:09:40;;;;;;;13.43;9.77;;;19.40;99.90;;;;;;5081077;28;20020;-75
2021/07/15 09:12:06;;;;;;;14.60;10.30;;;19.50;99.90;;;;;;5082427;28;20461;-76
2021/07/15 09:14:43;;;;;;;13.32;9.20;;;19.40;99.90;;;;;;5083389;28;20513;-76
2021/07/15 09:17:08;;;;;;;16.58;8.82;;;19.40;99.90;;;;;;5081999;28;20027;-75
2021/07/15 09:19:39;;;;;;;14.60;9.90;;;19.40;99.90;;;;;;5083239;28;20017;-74
2021/07/15 09:22:13;;;;;;;15.45;9.30;;;19.40;99.90;;;;;;5081510;28;20020;-74
2021/07/15 09:24:44;;;;;;;15.65;9.82;;;19.30;99.90;;;;;;5076707;28;20389;-74
2021/07/15 09:27:23;;;;;;;13.32;8.65;;;19.20;99.90;;;;;;5073892;28;20021;-74
2021/07/15 09:30:11;;;;;;;13.60;9.45;;;19.30;99.90;;;;;;5076914;28;20492;-74
2021/07/15 09:32:50;;;;;;;16.02;9.90;;;19.20;99.90;;;;;;5073948;28;20028;-74
2021/07/15 09:35:25;;;;;;;12.35;9.05;;;19.10;99.90;;;;;;5072882;28;20027;-73
2021/07/15 09:37:53;;;;;;;17.23;10.10;;;19.10;99.90;;;;;;5074866;28;20159;-74
2021/07/15 09:40:48;;;;;;;12.25;9.30;;;19.00;99.90;;;;;;5073945;28;20020;-74
2021/07/15 09:43:22;;;;;;;15.48;10.20;;;19.00;99.90;;;;;;5072442;28;20023;-73
2021/07/15 09:45:50;;;;;;;14.35;9.18;;;19.00;99.90;;;;;;5072264;28;20028;-74
2021/07/15 09:48:21;;;;;;;14.02;9.73;;;19.00;99.90;;;;;;5072272;28;20016;-74
2021/07/15 09:50:53;;;;;;;11.55;7.35;;;19.10;99.90;;;;;;5073784;28;20153;-73
2021/07/15 09:53:30;;;;;;;11.57;7.07;;;19.10;99.90;;;;;;5075544;28;20109;-73
2021/07/15 09:55:58;;;;;;;10.60;7.88;;;19.10;99.90;;;;;;5072554;28;20382;-74
2021/07/15 09:58:24;;;;;;;12.65;8.68;;;19.10;99.90;;;;;;5074060;28;20067;-73
2021/07/15 10:00:50;;;;;;;15.80;8.18;;;19.10;99.90;;;;;;5075264;28;20037;-73
2021/07/15 10:03:17;;;;;;;10.23;7.28;;;19.20;99.90;;;;;;5074070;28;20063;-73
2021/07/15 10:05:51;;;;;;;12.93;7.88;;;19.30;99.90;;;;;;5076514;28;20097;-74
2021/07/15 10:08:28;;;;;;;11.27;7.28;;;19.30;99.90;;;;;;5071826;28;20044;-76
2021/07/15 10:11:12;;;;;;;12.98;8.27;;;19.40;99.90;;;;;;5075635;28;20020;-74
2021/07/15 10:13:38;;;;;;;11.88;7.53;;;19.40;99.90;;;;;;5075289;28;20051;-75
2021/07/15 10:16:07;;;;;;;11.05;7.30;;;19.30;99.90;;;;;;5077892;28;20047;-74
2021/07/15 10:18:40;;;;;;;9.88;6.90;;;19.40;99.90;;;;;;5075730;28;20043;-74
2021/07/15 10:21:07;;;;;;;9.45;7.65;;;19.40;99.90;;;;;;5076804;28;20060;-74
2021/07/15 10:23:39;;;;;;;13.48;8.75;;;19.30;99.90;;;;;;5071319;28;20141;-75
2021/07/15 10:26:07;;;;;;;9.23;7.50;;;19.30;99.90;;;;;;5073756;28;20385;-74
2021/07/15 10:28:32;;;;;;;10.75;7.45;;;19.30;99.90;;;;;;5075915;28;20032;-74
2021/07/15 10:31:04;;;;;;;10.43;7.07;;;19.30;99.90;;;;;;5072742;28;20030;-75
2021/07/15 10:33:30;;;;;;;10.45;6.95;;;19.30;99.90;;;;;;5072478;28;20062;-75
2021/07/15 10:35:58;;;;;;;6.75;5.95;;;19.40;99.90;;;;;;5078465;28;20066;-75
2021/07/15 10:38:27;;;;;;;6.50;5.25;;;19.40;99.90;;;;;;5070869;28;20045;-75
2021/07/15 10:40:54;;;;;;;9.45;6.30;;;19.50;99.90;;;;;;5072836;28;20473;-75
2021/07/15 10:43:19;;;;;;;9.20;7.28;;;19.50;99.90;;;;;;5075343;28;20029;-75
2021/07/15 10:45:46;;;;;;;9.85;6.95;;;19.50;99.90;;;;;;5072415;28;20026;-75
2021/07/15 10:48:13;;;;;;;12.23;6.85;;;19.50;99.90;;;;;;5072312;28;20065;-75
2021/07/15 10:50:40;;;;;;;7.43;6.13;;;19.50;99.90;;;;;;5070921;28;20054;-75
2021/07/15 10:53:06;;;;;;;8.77;6.57;;;19.50;99.90;;;;;;5072989;28;20020;-75
2021/07/15 10:55:32;;;;;;;8.85;6.43;;;19.50;99.90;;;;;;5070873;28;20024;-75
2021/07/15 10:57:58;;;;;;;6.88;5.80;;;19.40;99.90;;;;;;5075280;28;20020;-75
2021/07/15 11:00:26;;;;;;;8.65;5.38;;;19.40;99.90;;;;;;5072955;28;20382;-75
2021/07/15 11:03:11;;;;;;;10.00;6.22;;;19.50;99.90;;;;;;5071277;28;20408;-75
2021/07/15 11:05:54;;;;;;;9.20;6.20;;;19.50;99.90;;;;;;5078371;28;20181;-75
2021/07/15 11:08:39;;;;;;;8.68;6.93;;;19.50;99.90;;;;;;5075656;28;20024;-75
2021/07/15 11:11:05;;;;;;;13.00;7.15;;;19.50;99.90;;;;;;5089682;28;20476;-75
2021/07/15 11:13:33;;;;;;;10.68;7.35;;;19.50;99.90;;;;;;5091733;28;20031;-75
2021/07/15 11:16:00;;;;;;;9.52;7.30;;;19.50;99.90;;;;;;5091655;28;20099;-75
2021/07/15 11:18:44;;;;;;;10.38;6.95;;;19.50;99.90;;;;;;5090809;28;20043;-75
2021/07/15 11:21:27;;;;;;;11.98;8.43;;;19.50;99.90;;;;;;5092286;28;20020;-75
2021/07/15 11:24:08;;;;;;;13.43;8.20;;;19.50;99.90;;;;;;5090555;28;20036;-75
2021/07/15 11:26:37;;;;;;;11.32;7.30;;;19.50;99.90;;;;;;5079081;28;20085;-75
2021/07/15 11:29:03;;;;;;;;;;;19.50;99.90;;;;;;5091160;28;20019;-75
2021/07/15 11:31:45;;;;;;;7.43;6.22;;;19.50;99.90;;;;;;5091779;28;19908;-75
2021/07/15 11:34:31;;;;;;;8.85;6.25;;;19.50;99.90;;;;;;5078055;28;20083;-74
2021/07/15 11:37:33;;;;;;;7.80;5.13;;;19.50;99.90;;;;;;5082472;28;20027;-74
2021/07/15 11:40:00;;;;;;;7.43;5.22;;;19.70;99.90;;;;;;5060239;28;20044;-74
2021/07/15 11:42:27;;;;;;;7.47;5.38;;;19.70;99.90;;;;;;5088715;28;20027;-74
2021/07/15 11:45:09;;;;;;;6.00;5.20;;;19.70;99.90;;;;;;5091839;28;20072;-75
2021/07/15 11:47:55;;;;;;;7.95;5.93;;;19.70;99.90;;;;;;5091521;28;20077;-74
2021/07/15 11:50:27;;;;;;;6.38;5.45;;;19.80;99.90;;;;;;5091308;28;20020;-75
2021/07/15 11:53:14;;;;;;;12.25;6.90;;;19.80;99.90;;;;;;5090670;28;20034;-74
2021/07/15 11:55:39;;;;;;;10.20;6.18;;;19.70;99.90;;;;;;5091883;28;20032;-75
2021/07/15 11:58:05;;;;;;;9.23;6.50;;;19.70;99.90;;;;;;5090361;28;20115;-76
2021/07/15 12:00:31;;;;;;;8.15;6.55;;;19.70;99.90;;;;;;5089963;28;20031;-76
2021/07/15 12:02:57;;;;;;;8.13;6.55;;;19.70;99.90;;;;;;5080261;28;20024;-77
2021/07/15 12:05:32;;;;;;;7.60;6.25;;;19.70;99.90;;;;;;5092079;28;20020;-77
2021/07/15 12:08:12;;;;;;;7.78;6.80;;;19.80;99.90;;;;;;5086287;28;20016;-76
2021/07/15 12:10:49;;;;;;;10.15;6.47;;;19.90;99.90;;;;;;5071199;28;20195;-77
2021/07/15 12:13:16;;;;;;;10.93;7.25;;;19.90;99.90;;;;;;5089988;28;20021;-77
2021/07/15 12:15:44;;;;;;;10.27;6.90;;;19.90;99.90;;;;;;5086527;28;20023;-76
2021/07/15 12:18:14;;;;;;;10.25;7.10;;;19.90;99.90;;;;;;5081408;28;20434;-77
2021/07/15 12:20:41;;;;;;;10.10;6.25;;;20.00;99.90;;;;;;5090437;28;20230;-76
2021/07/15 12:23:12;;;;;;;10.48;6.50;;;19.90;99.90;;;;;;5081485;28;20020;-77
2021/07/15 12:25:38;;;;;;;9.07;6.22;;;19.90;99.90;;;;;;5090031;28;20076;-76
2021/07/15 12:28:08;;;;;;;12.48;7.80;;;20.00;99.90;;;;;;5091467;28;20032;-77
2021/07/15 12:30:37;;;;;;;10.43;7.75;;;19.90;99.90;;;;;;5085690;28;20386;-74
2021/07/15 12:33:03;;;;;;;8.23;6.97;;;19.80;99.90;;;;;;5080170;28;20443;-74
2021/07/15 12:35:31;;;;;;;10.43;6.78;;;19.80;99.90;;;;;;5086900;28;20039;-75
2021/07/15 12:37:58;;;;;;;11.27;7.25;;;19.90;99.90;;;;;;5090726;28;20040;-74
2021/07/15 12:40:29;;;;;;;11.27;7.88;;;19.90;99.90;;;;;;5081584;28;20031;-74
2021/07/15 12:43:10;;;;;;;8.48;7.47;;;20.00;99.90;;;;;;5089374;28;20109;-72
2021/07/15 12:45:36;;;;;;;9.73;7.80;;;20.00;99.90;;;;;;5084809;28;20039;-74